Masardis, Maine
Current Conditions -  °F | °C
As of 3:35 PM on Saturday 20 Dec 2014 (Local Time) from KPQI Reporting Station
Overcast Overcast  
Wind Chill: 18°   Ceiling: 1200
Heat Index: 18°   Visibility: 10mi
Dew Point: 18°   Wind: 3mph
Humidity: 100%   Direction: 360°N
Pressure: 30.34"   Gusts: NA
Location:  46.5°N, 68.36°W
Report Text: KPQI 202035Z AUTO 36003KT 10SM OVC012 M08/M08 A3034 RMK AO1
Loading
Personal Weather Stations






























Interactive Weather Map New forecast layout! Learn more

10-Day Weather Forecast

Advertisements
Track Severe Weather on mobile